Flugplatz Karlsruhe Baden-Baden

Bericht für EDSB

vom 25.10. um 17:20 UTC

variable Windrichtung mit 1 kt

Sichtweite 10 km oder mehr

gute Sicht, keine Wolken < 5000 ft, keine CB, keine Wettererscheinungen (CAVOK)

Temperatur 10.0°C

Taupunkt 8.0°C

Luftfeuchtigkeit 87%

Luftdruck 1020 hPa

EDSB 251720Z VRB01KT CAVOK 10/08 Q1020
Keine Prognose (TAF) verfügbar.
Impressum